createdAt,value
2023-01-12T00:01:28.727Z,9.93
2023-01-12T00:04:16.048Z,6.55
2023-01-12T00:07:02.666Z,5.82
2023-01-12T00:09:48.694Z,5.82
2023-01-12T00:12:35.027Z,7.55
2023-01-12T00:15:40.828Z,6.35
2023-01-12T00:18:27.042Z,6.72
2023-01-12T00:21:13.591Z,6.22
2023-01-12T00:23:59.482Z,4.70
2023-01-12T00:26:47.354Z,4.63
2023-01-12T00:29:36.425Z,4.20
2023-01-12T00:32:22.931Z,5.32
2023-01-12T00:35:09.853Z,4.18
2023-01-12T00:37:55.830Z,4.53
2023-01-12T00:40:41.733Z,4.53
2023-01-12T00:43:47.415Z,3.92
2023-01-12T00:46:33.469Z,3.95
2023-01-12T00:49:19.528Z,4.78
2023-01-12T00:52:07.575Z,3.72
2023-01-12T00:54:53.637Z,5.95
2023-01-12T00:57:40.083Z,3.67
2023-01-12T01:00:26.139Z,4.05
2023-01-12T01:03:12.033Z,4.38
2023-01-12T01:06:07.931Z,4.63
2023-01-12T01:08:54.366Z,4.70
2023-01-12T01:11:41.045Z,4.97
2023-01-12T01:14:27.302Z,5.63
2023-01-12T01:17:13.313Z,5.40
2023-01-12T01:19:59.821Z,4.55
2023-01-12T01:22:45.689Z,4.75
2023-01-12T01:25:33.065Z,4.97
2023-01-12T01:28:19.455Z,6.28
2023-01-12T01:31:18.189Z,6.07
2023-01-12T01:34:07.383Z,3.90
2023-01-12T01:36:53.454Z,5.07
2023-01-12T01:39:39.423Z,5.10
2023-01-12T01:42:28.517Z,5.20
2023-01-12T01:45:16.787Z,5.13
2023-01-12T01:48:03.182Z,5.38
2023-01-12T01:50:58.680Z,4.68
2023-01-12T01:53:46.900Z,5.07
2023-01-12T01:56:33.730Z,4.90
2023-01-12T01:59:24.724Z,4.55
2023-01-12T02:02:11.019Z,4.03
2023-01-12T02:04:57.721Z,4.80
2023-01-12T02:07:44.756Z,5.28
2023-01-12T02:10:30.939Z,4.00
2023-01-12T02:13:36.230Z,3.60
2023-01-12T02:16:29.607Z,3.75
2023-01-12T02:19:58.700Z,3.20
2023-01-12T02:23:09.586Z,5.00
2023-01-12T02:25:58.665Z,4.38
2023-01-12T02:29:08.757Z,3.30
2023-01-12T02:32:19.929Z,2.95
2023-01-12T02:35:24.803Z,2.80
2023-01-12T02:38:40.052Z,4.75
2023-01-12T02:42:03.504Z,4.28
2023-01-12T02:45:31.065Z,3.33
2023-01-12T02:48:38.095Z,2.95
2023-01-12T02:51:33.503Z,3.95
2023-01-12T02:54:21.713Z,4.00
2023-01-12T02:57:09.999Z,2.60
2023-01-12T02:59:59.142Z,2.88
2023-01-12T03:02:45.185Z,3.25
2023-01-12T03:05:31.299Z,2.45
2023-01-12T03:08:23.601Z,3.10
2023-01-12T03:11:28.309Z,2.92
2023-01-12T03:14:15.273Z,2.25
2023-01-12T03:17:06.867Z,2.97
2023-01-12T03:19:57.292Z,2.15
2023-01-12T03:22:45.631Z,1.88
2023-01-12T03:25:33.600Z,1.88
2023-01-12T03:28:22.957Z,3.15
2023-01-12T03:31:12.968Z,1.92
2023-01-12T03:33:59.513Z,1.70
2023-01-12T03:36:56.322Z,2.17
2023-01-12T03:39:50.167Z,1.95
2023-01-12T03:42:48.187Z,1.98
2023-01-12T03:46:04.492Z,2.40
2023-01-12T03:49:19.437Z,1.55
2023-01-12T03:52:07.473Z,2.92
2023-01-12T03:54:58.734Z,1.92
2023-01-12T03:57:48.498Z,2.00
2023-01-12T04:00:34.872Z,1.70
2023-01-12T04:03:21.765Z,2.20
2023-01-12T04:06:08.359Z,2.40
2023-01-12T04:08:54.279Z,1.83
2023-01-12T04:11:59.411Z,2.00
2023-01-12T04:14:48.041Z,3.05
2023-01-12T04:17:34.182Z,1.60
2023-01-12T04:20:20.941Z,1.58
2023-01-12T04:23:07.545Z,2.90
2023-01-12T04:25:53.343Z,1.60
2023-01-12T04:28:42.420Z,1.60
2023-01-12T04:31:28.476Z,2.28
2023-01-12T04:34:14.450Z,1.80
2023-01-12T04:37:03.791Z,2.00
2023-01-12T04:39:59.005Z,1.83
2023-01-12T04:43:08.828Z,1.50
2023-01-12T04:45:54.861Z,1.65
2023-01-12T04:48:46.731Z,1.40
2023-01-12T04:51:32.970Z,1.65
2023-01-12T04:54:19.173Z,1.13
2023-01-12T04:57:05.760Z,1.85
2023-01-12T04:59:52.091Z,1.30
2023-01-12T05:02:37.864Z,1.35
2023-01-12T05:05:26.691Z,1.08
2023-01-12T05:08:31.683Z,1.55
2023-01-12T05:11:21.571Z,1.35
2023-01-12T05:14:07.849Z,1.33
2023-01-12T05:17:11.985Z,1.48
2023-01-12T05:20:00.721Z,1.60
2023-01-12T05:22:51.615Z,1.30
2023-01-12T05:25:37.937Z,1.30
2023-01-12T05:28:25.511Z,1.33
2023-01-12T05:31:15.152Z,1.35
2023-01-12T05:34:01.741Z,1.73
2023-01-12T05:36:57.230Z,1.67
2023-01-12T05:39:43.815Z,1.80
2023-01-12T05:42:48.685Z,1.83
2023-01-12T05:45:35.324Z,1.52
2023-01-12T05:48:21.829Z,1.40
2023-01-12T05:51:12.569Z,1.30
2023-01-12T05:53:59.150Z,1.65
2023-01-12T05:56:45.353Z,1.40
2023-01-12T05:59:31.322Z,1.48
2023-01-12T06:02:17.595Z,1.77
2023-01-12T06:05:05.202Z,1.90
2023-01-12T06:07:51.258Z,1.48
2023-01-12T06:10:39.307Z,1.88
2023-01-12T06:13:44.311Z,1.50
2023-01-12T06:16:30.896Z,1.15
2023-01-12T06:19:17.129Z,1.15
2023-01-12T06:22:03.028Z,1.35
2023-01-12T06:24:49.287Z,1.40
2023-01-12T06:27:36.020Z,1.55
2023-01-12T06:30:24.435Z,1.65
2023-01-12T06:33:10.385Z,2.97
2023-01-12T06:35:57.056Z,1.38
2023-01-12T06:38:46.296Z,1.38
2023-01-12T06:41:53.164Z,1.45
2023-01-12T06:44:39.111Z,1.60
2023-01-12T06:47:26.229Z,1.70
2023-01-12T06:50:12.830Z,1.58
2023-01-12T06:53:03.938Z,1.70
2023-01-12T06:55:51.199Z,1.33
2023-01-12T06:58:37.105Z,1.80
2023-01-12T07:01:25.003Z,1.20
2023-01-12T07:04:11.404Z,1.30
2023-01-12T07:06:57.947Z,1.42
2023-01-12T07:09:43.858Z,1.40
2023-01-12T07:12:29.947Z,1.20
2023-01-12T07:15:16.523Z,1.33
2023-01-12T07:18:02.467Z,1.52
2023-01-12T07:20:48.804Z,1.73
2023-01-12T07:23:35.472Z,1.40
2023-01-12T07:26:21.671Z,1.77
2023-01-12T07:29:07.796Z,1.30
2023-01-12T07:31:54.059Z,2.25
2023-01-12T07:34:39.968Z,1.73
2023-01-12T07:37:25.990Z,2.38
2023-01-12T07:40:12.554Z,2.63
2023-01-12T07:43:04.120Z,1.90
2023-01-12T07:45:50.372Z,1.98
2023-01-12T07:48:36.498Z,2.05
2023-01-12T07:51:24.453Z,2.53
2023-01-12T07:54:10.736Z,2.38
2023-01-12T07:56:57.977Z,2.45
2023-01-12T07:59:44.424Z,2.75
2023-01-12T08:02:30.541Z,2.72
2023-01-12T08:05:17.114Z,2.60
2023-01-12T08:08:04.564Z,2.95
2023-01-12T08:10:51.067Z,2.80
2023-01-12T08:13:38.597Z,2.75
2023-01-12T08:16:33.403Z,2.72
2023-01-12T08:19:26.479Z,2.78
2023-01-12T08:22:20.432Z,2.88
2023-01-12T08:25:12.370Z,2.80
2023-01-12T08:28:02.907Z,2.63
2023-01-12T08:30:50.169Z,3.05
2023-01-12T08:33:38.341Z,3.35
2023-01-12T08:36:25.819Z,3.80
2023-01-12T08:39:11.851Z,2.88
2023-01-12T08:41:58.082Z,2.75
2023-01-12T08:44:44.947Z,3.67
2023-01-12T08:47:30.932Z,2.90
2023-01-12T08:50:17.207Z,2.97
2023-01-12T08:53:04.182Z,2.88
2023-01-12T08:55:56.487Z,2.72
2023-01-12T08:58:43.276Z,2.72
2023-01-12T09:01:29.847Z,4.55
2023-01-12T09:04:16.240Z,2.70
2023-01-12T09:07:02.662Z,4.25
2023-01-12T09:09:48.634Z,3.90
2023-01-12T09:12:34.516Z,2.58
2023-01-12T09:15:20.564Z,4.20
2023-01-12T09:18:06.577Z,5.30
2023-01-12T09:20:52.412Z,3.60
2023-01-12T09:23:39.159Z,4.68
2023-01-12T09:26:34.142Z,3.47
2023-01-12T09:29:20.176Z,3.15
2023-01-12T09:32:09.816Z,4.05
2023-01-12T09:34:56.127Z,2.80
2023-01-12T09:37:43.682Z,2.92
2023-01-12T09:40:29.799Z,2.88
2023-01-12T09:43:36.771Z,2.45
2023-01-12T09:46:59.031Z,2.10
2023-01-12T09:49:55.822Z,2.90
2023-01-12T09:52:47.123Z,1.90
2023-01-12T09:55:52.504Z,2.97
2023-01-12T09:59:01.037Z,2.20
2023-01-12T10:01:47.074Z,1.65
2023-01-12T10:04:34.036Z,1.75
2023-01-12T10:07:20.205Z,2.78
2023-01-12T10:10:07.112Z,1.80
2023-01-12T10:12:59.956Z,3.05
2023-01-12T10:15:57.572Z,3.72
2023-01-12T10:18:47.798Z,1.50
2023-01-12T10:21:35.301Z,2.20
2023-01-12T10:24:24.273Z,2.53
2023-01-12T10:27:14.861Z,2.60
2023-01-12T10:30:02.073Z,1.90
2023-01-12T10:32:48.008Z,2.03
2023-01-12T10:35:34.016Z,1.35
2023-01-12T10:38:27.350Z,1.83
2023-01-12T10:41:22.178Z,1.60
2023-01-12T10:44:17.385Z,1.52
2023-01-12T10:47:12.875Z,2.22
2023-01-12T10:50:31.399Z,1.35
2023-01-12T10:53:20.840Z,1.30
2023-01-12T10:56:22.229Z,1.73
2023-01-12T10:59:13.900Z,1.83
2023-01-12T11:02:09.207Z,1.88
2023-01-12T11:04:55.739Z,1.80
2023-01-12T11:07:49.777Z,1.60
2023-01-12T11:10:37.426Z,1.60
2023-01-12T11:13:37.850Z,1.63
2023-01-12T11:16:33.015Z,3.03
2023-01-12T11:19:27.637Z,1.70
2023-01-12T11:22:20.785Z,2.88
2023-01-12T11:25:21.361Z,2.10
2023-01-12T11:28:13.564Z,1.75
2023-01-12T11:31:08.287Z,1.90
2023-01-12T11:34:02.091Z,2.00
2023-01-12T11:36:52.689Z,1.65
2023-01-12T11:39:41.151Z,1.95
2023-01-12T11:42:48.727Z,1.83
2023-01-12T11:45:53.415Z,1.77
2023-01-12T11:48:59.866Z,2.00
2023-01-12T11:51:51.181Z,2.67
2023-01-12T11:54:38.586Z,1.73
2023-01-12T11:58:02.145Z,2.40
2023-01-12T12:01:15.549Z,1.50
2023-01-12T12:04:18.019Z,2.40
2023-01-12T12:07:40.196Z,1.60
2023-01-12T12:11:10.695Z,1.90
2023-01-12T12:14:21.593Z,1.45
2023-01-12T12:17:21.569Z,2.05
2023-01-12T12:20:33.838Z,1.48
2023-01-12T12:23:54.794Z,1.48
2023-01-12T12:26:48.748Z,1.70
2023-01-12T12:29:56.182Z,1.48
2023-01-12T12:33:07.997Z,1.40
2023-01-12T12:36:18.652Z,2.38
2023-01-12T12:39:43.279Z,2.78
2023-01-12T12:43:16.169Z,1.75
2023-01-12T12:46:21.240Z,1.60
2023-01-12T12:49:13.784Z,1.42
2023-01-12T12:52:00.966Z,1.92
2023-01-12T12:54:47.891Z,1.42
2023-01-12T12:58:20.330Z,1.92
2023-01-12T13:01:24.831Z,1.90
2023-01-12T13:04:12.607Z,1.95
2023-01-12T13:07:06.056Z,1.70
2023-01-12T13:10:01.793Z,1.90
2023-01-12T13:12:57.806Z,1.90
2023-01-12T13:15:43.976Z,1.67
2023-01-12T13:18:51.957Z,1.67
2023-01-12T13:21:59.032Z,2.20
2023-01-12T13:24:45.974Z,1.70
2023-01-12T13:28:03.349Z,1.67
2023-01-12T13:30:53.574Z,1.70
2023-01-12T13:33:40.413Z,2.42
2023-01-12T13:36:31.477Z,1.30
2023-01-12T13:39:21.196Z,1.70
2023-01-12T13:42:31.533Z,1.85
2023-01-12T13:45:19.344Z,1.45
2023-01-12T13:48:07.588Z,2.13
2023-01-12T13:51:12.016Z,1.35
2023-01-12T13:57:01.180Z,1.30
2023-01-12T14:00:10.834Z,1.58
2023-01-12T14:03:04.734Z,2.10
2023-01-12T14:06:04.055Z,2.15
2023-01-12T14:09:02.832Z,3.05
2023-01-12T14:12:15.687Z,2.70
2023-01-12T14:15:39.234Z,2.97
2023-01-12T14:18:28.325Z,1.90
2023-01-12T14:21:24.161Z,2.05
2023-01-12T14:24:36.546Z,1.90
2023-01-12T14:27:27.463Z,1.98
2023-01-12T14:30:14.858Z,2.80
2023-01-12T14:33:01.152Z,2.70
2023-01-12T14:35:53.176Z,1.95
2023-01-12T14:38:42.066Z,2.55
2023-01-12T14:41:48.759Z,2.88
2023-01-12T14:44:57.536Z,1.88
2023-01-12T14:47:44.153Z,1.92
2023-01-12T14:50:29.938Z,2.28
2023-01-12T14:53:25.541Z,1.90
2023-01-12T14:56:18.359Z,2.65
2023-01-12T14:59:24.695Z,3.28
2023-01-12T15:02:13.854Z,1.77
2023-01-12T15:05:17.905Z,1.65
2023-01-12T15:08:26.914Z,1.92
2023-01-12T15:11:13.013Z,4.00
2023-01-12T15:14:00.224Z,2.95
2023-01-12T15:17:04.620Z,2.22
2023-01-12T15:20:09.059Z,2.53
2023-01-12T15:23:16.800Z,2.00
2023-01-12T15:26:06.993Z,1.75
2023-01-12T15:28:52.959Z,1.67
2023-01-12T15:31:39.517Z,3.10
2023-01-12T15:34:25.943Z,2.40
2023-01-12T15:37:17.610Z,2.05
2023-01-12T15:40:07.595Z,2.08
2023-01-12T15:42:53.764Z,2.60
2023-01-12T15:45:42.329Z,4.70
2023-01-12T15:48:28.312Z,2.42
2023-01-12T15:51:15.910Z,1.55
2023-01-12T15:54:03.543Z,1.63
2023-01-12T15:56:49.609Z,1.55
2023-01-12T15:59:35.382Z,1.80
2023-01-12T16:02:37.205Z,1.98
2023-01-12T16:05:26.152Z,2.22
2023-01-12T16:08:12.622Z,2.30
2023-01-12T16:11:13.322Z,3.38
2023-01-12T16:14:02.203Z,6.50
2023-01-12T16:16:48.292Z,6.50
2023-01-12T16:19:40.982Z,4.97
2023-01-12T16:22:28.068Z,4.10
2023-01-12T16:25:14.756Z,3.75
2023-01-12T16:28:00.566Z,3.17
2023-01-12T16:30:47.664Z,2.03
2023-01-12T16:33:33.643Z,1.48
2023-01-12T16:36:19.521Z,1.50
2023-01-12T16:39:05.417Z,1.40
2023-01-12T16:41:53.237Z,1.13
2023-01-12T16:44:40.206Z,1.10
2023-01-12T16:47:26.374Z,1.63
2023-01-12T16:50:12.659Z,2.35
2023-01-12T16:52:58.487Z,1.65
2023-01-12T16:55:44.547Z,1.60
2023-01-12T16:58:30.742Z,2.20
2023-01-12T17:01:19.213Z,1.80
2023-01-12T17:04:06.500Z,2.05
2023-01-12T17:06:53.076Z,2.15
2023-01-12T17:09:39.800Z,2.33
2023-01-12T17:12:26.124Z,2.33
2023-01-12T17:15:12.963Z,2.30
2023-01-12T17:17:59.099Z,2.50
2023-01-12T17:20:47.214Z,3.47
2023-01-12T17:23:33.961Z,3.10
2023-01-12T17:26:20.327Z,3.33
2023-01-12T17:29:10.575Z,2.78
2023-01-12T17:32:03.810Z,5.05
2023-01-12T17:34:51.443Z,2.83
2023-01-12T17:37:37.468Z,3.25
2023-01-12T17:40:23.975Z,3.25
2023-01-12T17:43:14.690Z,2.90
2023-01-12T17:46:05.050Z,3.53
2023-01-12T17:48:51.639Z,3.10
2023-01-12T17:51:38.268Z,3.50
2023-01-12T17:54:24.946Z,4.00
2023-01-12T17:57:11.638Z,3.42
2023-01-12T18:00:00.919Z,3.05
2023-01-12T18:02:47.382Z,3.55
2023-01-12T18:05:33.416Z,3.65
2023-01-12T18:08:20.006Z,4.05
2023-01-12T18:11:08.197Z,4.65
2023-01-12T18:13:55.411Z,5.60
2023-01-12T18:16:44.670Z,5.35
2023-01-12T18:19:30.710Z,5.05
2023-01-12T18:22:17.071Z,4.78
2023-01-12T18:25:06.039Z,6.35
2023-01-12T18:27:52.830Z,5.30
2023-01-12T18:30:39.098Z,7.47
2023-01-12T18:33:25.762Z,8.82
2023-01-12T18:36:17.981Z,6.50
2023-01-12T18:39:05.817Z,7.20
2023-01-12T18:42:10.299Z,5.82
2023-01-12T18:44:59.468Z,6.10
2023-01-12T18:48:06.852Z,7.03
2023-01-12T18:51:12.345Z,6.07
2023-01-12T18:53:59.670Z,6.88
2023-01-12T18:56:47.711Z,7.50
2023-01-12T18:59:34.203Z,6.75
2023-01-12T19:02:20.904Z,5.93
2023-01-12T19:05:11.542Z,5.85
2023-01-12T19:07:57.768Z,5.60
2023-01-12T19:10:43.672Z,7.03
2023-01-12T19:13:48.230Z,6.35
2023-01-12T19:22:44.798Z,8.88
2023-01-12T19:25:49.855Z,6.72
2023-01-12T19:28:36.164Z,9.25
2023-01-12T19:31:22.469Z,8.73
2023-01-12T19:34:08.917Z,7.95
2023-01-12T19:36:58.074Z,7.47
2023-01-12T19:39:46.498Z,7.00
2023-01-12T19:42:51.841Z,6.78
2023-01-12T19:45:39.332Z,7.38
2023-01-12T19:48:26.019Z,8.75
2023-01-12T19:51:12.140Z,7.38
2023-01-12T19:53:58.064Z,7.30
2023-01-12T19:56:47.133Z,7.63
2023-01-12T19:59:33.130Z,9.85
2023-01-12T20:02:19.057Z,9.20
2023-01-12T20:05:05.381Z,6.40
2023-01-12T20:07:53.106Z,6.68
2023-01-12T20:10:39.522Z,8.90
2023-01-12T20:13:27.357Z,8.38
2023-01-12T20:16:13.830Z,7.03
2023-01-12T20:18:59.767Z,7.63
2023-01-12T20:21:47.112Z,6.80
2023-01-12T20:24:33.462Z,6.10
2023-01-12T20:27:19.523Z,6.75
2023-01-12T20:30:06.482Z,7.38
2023-01-12T20:32:53.606Z,7.47
2023-01-12T20:35:45.450Z,6.35
2023-01-12T20:38:31.750Z,7.53
2023-01-12T20:41:18.796Z,5.85
2023-01-12T20:44:05.954Z,5.70
2023-01-12T20:46:51.857Z,7.65
2023-01-12T20:49:37.833Z,5.00
2023-01-12T20:52:25.427Z,5.57
2023-01-12T20:55:11.303Z,7.55
2023-01-12T20:57:57.169Z,6.40
2023-01-12T21:00:43.406Z,5.40
2023-01-12T21:03:29.636Z,5.10
2023-01-12T21:06:17.305Z,5.97
2023-01-12T21:09:04.714Z,7.57
2023-01-12T21:11:52.376Z,7.13
2023-01-12T21:14:38.748Z,8.60
2023-01-12T21:17:25.391Z,7.00
2023-01-12T21:20:12.242Z,6.65
2023-01-12T21:22:58.083Z,5.65
2023-01-12T21:25:44.608Z,7.05
2023-01-12T21:28:30.775Z,5.55
2023-01-12T21:31:17.025Z,6.00
2023-01-12T21:34:03.248Z,6.47
2023-01-12T21:36:49.116Z,7.53
2023-01-12T21:39:37.901Z,6.75
2023-01-12T21:42:42.927Z,8.10
2023-01-12T21:45:30.042Z,6.55
2023-01-12T21:48:18.164Z,8.20
2023-01-12T21:51:06.496Z,8.85
2023-01-12T21:53:53.077Z,6.70
2023-01-12T21:56:40.165Z,8.80
2023-01-12T21:59:26.250Z,5.93
2023-01-12T22:02:12.325Z,7.13
2023-01-12T22:04:58.547Z,7.10
2023-01-12T22:07:44.653Z,6.68
2023-01-12T22:10:31.421Z,6.05
2023-01-12T22:13:17.909Z,7.03
2023-01-12T22:16:09.894Z,5.75
2023-01-12T22:18:56.137Z,5.78
2023-01-12T22:21:42.356Z,5.38
2023-01-12T22:24:28.531Z,6.18
2023-01-12T22:27:15.364Z,5.65
2023-01-12T22:30:02.568Z,6.35
2023-01-12T22:32:51.778Z,5.75
2023-01-12T22:35:38.114Z,6.80
2023-01-12T22:38:24.487Z,6.93
2023-01-12T22:41:12.242Z,6.43
2023-01-12T22:43:58.259Z,4.78
2023-01-12T22:46:44.417Z,5.82
2023-01-12T22:49:30.591Z,5.15
2023-01-12T22:52:16.306Z,5.55
2023-01-12T22:55:02.339Z,6.32
2023-01-12T22:57:49.582Z,4.40
2023-01-12T23:00:39.738Z,5.20
2023-01-12T23:03:25.566Z,5.65
2023-01-12T23:06:13.868Z,7.88
2023-01-12T23:09:00.614Z,5.47
2023-01-12T23:11:46.843Z,6.55
2023-01-12T23:14:33.148Z,6.30
2023-01-12T23:17:19.677Z,6.60
2023-01-12T23:20:06.477Z,6.57
2023-01-12T23:22:53.431Z,5.00
2023-01-12T23:25:39.796Z,6.18
2023-01-12T23:28:27.565Z,4.85
2023-01-12T23:31:16.817Z,3.95
2023-01-12T23:34:03.228Z,5.22
2023-01-12T23:36:49.386Z,6.47
2023-01-12T23:39:35.476Z,5.68
2023-01-12T23:42:21.205Z,4.85
2023-01-12T23:45:07.420Z,5.15
2023-01-12T23:47:53.559Z,5.22
2023-01-12T23:50:39.531Z,5.55
2023-01-12T23:53:26.395Z,4.55
2023-01-12T23:56:14.641Z,5.95
2023-01-12T23:59:01.547Z,4.07
